sensor_id;sensor_type;location;lat;lon;timestamp;P1;durP1;ratioP1;P2;durP2;ratioP2
52266;SDS011;38223;50.940;4.034;2023-09-12T00:01:24;36.70;;;28.38;;
52266;SDS011;38223;50.940;4.034;2023-09-12T00:03:54;36.98;;;28.15;;
52266;SDS011;38223;50.940;4.034;2023-09-12T00:06:28;32.10;;;26.42;;
52266;SDS011;38223;50.940;4.034;2023-09-12T00:08:57;34.33;;;27.48;;
52266;SDS011;38223;50.940;4.034;2023-09-12T00:11:29;34.92;;;27.50;;
52266;SDS011;38223;50.940;4.034;2023-09-12T00:14:02;32.48;;;27.13;;
52266;SDS011;38223;50.940;4.034;2023-09-12T00:16:37;34.90;;;29.25;;
52266;SDS011;38223;50.940;4.034;2023-09-12T00:19:07;36.23;;;28.83;;
52266;SDS011;38223;50.940;4.034;2023-09-12T00:21:41;32.90;;;27.82;;
52266;SDS011;38223;50.940;4.034;2023-09-12T00:24:16;37.78;;;29.30;;
52266;SDS011;38223;50.940;4.034;2023-09-12T00:26:47;44.33;;;30.02;;
52266;SDS011;38223;50.940;4.034;2023-09-12T00:29:18;37.60;;;29.98;;
52266;SDS011;38223;50.940;4.034;2023-09-12T00:31:52;37.20;;;30.52;;
52266;SDS011;38223;50.940;4.034;2023-09-12T00:34:24;40.50;;;30.52;;
52266;SDS011;38223;50.940;4.034;2023-09-12T00:36:58;43.17;;;30.60;;
52266;SDS011;38223;50.940;4.034;2023-09-12T00:39:28;37.28;;;30.00;;
52266;SDS011;38223;50.940;4.034;2023-09-12T00:41:59;43.87;;;31.10;;
52266;SDS011;38223;50.940;4.034;2023-09-12T00:44:29;43.42;;;31.42;;
52266;SDS011;38223;50.940;4.034;2023-09-12T00:46:59;41.53;;;32.45;;
52266;SDS011;38223;50.940;4.034;2023-09-12T00:49:33;42.48;;;32.85;;
52266;SDS011;38223;50.940;4.034;2023-09-12T00:52:08;45.25;;;30.62;;
52266;SDS011;38223;50.940;4.034;2023-09-12T00:54:40;38.95;;;30.23;;
52266;SDS011;38223;50.940;4.034;2023-09-12T00:57:13;38.73;;;30.43;;
52266;SDS011;38223;50.940;4.034;2023-09-12T00:59:43;42.93;;;31.35;;
52266;SDS011;38223;50.940;4.034;2023-09-12T01:02:19;42.70;;;32.30;;
52266;SDS011;38223;50.940;4.034;2023-09-12T01:04:48;45.08;;;32.70;;
52266;SDS011;38223;50.940;4.034;2023-09-12T01:07:23;37.95;;;31.35;;
52266;SDS011;38223;50.940;4.034;2023-09-12T01:09:57;42.00;;;30.97;;
52266;SDS011;38223;50.940;4.034;2023-09-12T01:12:28;38.97;;;31.60;;
52266;SDS011;38223;50.940;4.034;2023-09-12T01:15:03;43.00;;;28.98;;
52266;SDS011;38223;50.940;4.034;2023-09-12T01:17:40;40.50;;;29.70;;
52266;SDS011;38223;50.940;4.034;2023-09-12T01:20:19;38.67;;;28.52;;
52266;SDS011;38223;50.940;4.034;2023-09-12T01:28:37;35.50;;;28.57;;
52266;SDS011;38223;50.940;4.034;2023-09-12T01:31:08;33.58;;;27.75;;
52266;SDS011;38223;50.940;4.034;2023-09-12T01:33:42;36.88;;;27.70;;
52266;SDS011;38223;50.940;4.034;2023-09-12T01:39:02;36.00;;;27.35;;
52266;SDS011;38223;50.940;4.034;2023-09-12T01:41:33;33.63;;;27.97;;
52266;SDS011;38223;50.940;4.034;2023-09-12T01:46:59;34.73;;;27.22;;
52266;SDS011;38223;50.940;4.034;2023-09-12T01:49:29;34.60;;;27.35;;
52266;SDS011;38223;50.940;4.034;2023-09-12T01:52:03;35.80;;;28.23;;
52266;SDS011;38223;50.940;4.034;2023-09-12T01:54:36;33.92;;;27.80;;
52266;SDS011;38223;50.940;4.034;2023-09-12T01:57:11;35.58;;;28.60;;
52266;SDS011;38223;50.940;4.034;2023-09-12T01:59:43;38.15;;;29.20;;
52266;SDS011;38223;50.940;4.034;2023-09-12T02:02:15;34.85;;;29.42;;
52266;SDS011;38223;50.940;4.034;2023-09-12T02:05:09;37.70;;;28.90;;
52266;SDS011;38223;50.940;4.034;2023-09-12T02:07:47;37.30;;;27.52;;
52266;SDS011;38223;50.940;4.034;2023-09-12T02:10:18;32.85;;;27.65;;
52266;SDS011;38223;50.940;4.034;2023-09-12T02:12:53;34.35;;;26.65;;
52266;SDS011;38223;50.940;4.034;2023-09-12T02:15:29;32.90;;;26.23;;
52266;SDS011;38223;50.940;4.034;2023-09-12T02:18:03;34.67;;;27.37;;
52266;SDS011;38223;50.940;4.034;2023-09-12T02:20:38;35.73;;;27.93;;
52266;SDS011;38223;50.940;4.034;2023-09-12T02:23:11;39.70;;;28.80;;
52266;SDS011;38223;50.940;4.034;2023-09-12T02:25:45;35.48;;;27.93;;
52266;SDS011;38223;50.940;4.034;2023-09-12T02:28:18;41.77;;;29.25;;
52266;SDS011;38223;50.940;4.034;2023-09-12T02:30:52;37.38;;;27.82;;
52266;SDS011;38223;50.940;4.034;2023-09-12T02:33:21;35.05;;;27.00;;
52266;SDS011;38223;50.940;4.034;2023-09-12T02:35:51;31.90;;;25.85;;
52266;SDS011;38223;50.940;4.034;2023-09-12T02:38:24;34.40;;;27.48;;
52266;SDS011;38223;50.940;4.034;2023-09-12T02:40:55;35.30;;;25.92;;
52266;SDS011;38223;50.940;4.034;2023-09-12T02:43:30;30.60;;;25.60;;
52266;SDS011;38223;50.940;4.034;2023-09-12T02:46:00;38.58;;;26.40;;
52266;SDS011;38223;50.940;4.034;2023-09-12T02:50:59;35.15;;;27.48;;
52266;SDS011;38223;50.940;4.034;2023-09-12T02:53:35;34.45;;;26.02;;
52266;SDS011;38223;50.940;4.034;2023-09-12T02:56:05;31.85;;;25.65;;
52266;SDS011;38223;50.940;4.034;2023-09-12T02:58:40;31.57;;;25.20;;
52266;SDS011;38223;50.940;4.034;2023-09-12T03:01:20;33.95;;;25.02;;
52266;SDS011;38223;50.940;4.034;2023-09-12T03:03:50;32.38;;;25.17;;
52266;SDS011;38223;50.940;4.034;2023-09-12T03:06:19;32.63;;;25.92;;
52266;SDS011;38223;50.940;4.034;2023-09-12T03:08:54;32.40;;;25.75;;
52266;SDS011;38223;50.940;4.034;2023-09-12T03:11:30;29.27;;;25.00;;
52266;SDS011;38223;50.940;4.034;2023-09-12T03:13:58;32.33;;;25.97;;
52266;SDS011;38223;50.940;4.034;2023-09-12T03:16:29;34.55;;;26.20;;
52266;SDS011;38223;50.940;4.034;2023-09-12T03:19:01;33.85;;;26.60;;
52266;SDS011;38223;50.940;4.034;2023-09-12T03:21:34;30.82;;;25.88;;
52266;SDS011;38223;50.940;4.034;2023-09-12T03:24:08;32.93;;;26.27;;
52266;SDS011;38223;50.940;4.034;2023-09-12T03:26:42;36.30;;;25.97;;
52266;SDS011;38223;50.940;4.034;2023-09-12T03:29:10;32.63;;;26.20;;
52266;SDS011;38223;50.940;4.034;2023-09-12T03:31:43;29.37;;;25.20;;
52266;SDS011;38223;50.940;4.034;2023-09-12T03:34:13;34.60;;;26.40;;
52266;SDS011;38223;50.940;4.034;2023-09-12T03:36:48;33.65;;;25.85;;
52266;SDS011;38223;50.940;4.034;2023-09-12T03:39:19;30.60;;;24.45;;
52266;SDS011;38223;50.940;4.034;2023-09-12T03:41:51;33.60;;;26.30;;
52266;SDS011;38223;50.940;4.034;2023-09-12T03:44:21;32.58;;;24.35;;
52266;SDS011;38223;50.940;4.034;2023-09-12T03:46:53;31.40;;;25.40;;
52266;SDS011;38223;50.940;4.034;2023-09-12T03:49:28;35.05;;;25.12;;
52266;SDS011;38223;50.940;4.034;2023-09-12T03:51:59;29.82;;;25.25;;
52266;SDS011;38223;50.940;4.034;2023-09-12T03:54:31;32.83;;;25.30;;
52266;SDS011;38223;50.940;4.034;2023-09-12T03:57:02;32.83;;;25.65;;
52266;SDS011;38223;50.940;4.034;2023-09-12T03:59:40;30.15;;;25.88;;
52266;SDS011;38223;50.940;4.034;2023-09-12T04:02:13;31.82;;;27.17;;
52266;SDS011;38223;50.940;4.034;2023-09-12T04:04:43;34.75;;;26.95;;
52266;SDS011;38223;50.940;4.034;2023-09-12T04:07:18;33.90;;;25.97;;
52266;SDS011;38223;50.940;4.034;2023-09-12T04:09:55;32.48;;;25.90;;
52266;SDS011;38223;50.940;4.034;2023-09-12T04:12:25;35.85;;;27.25;;
52266;SDS011;38223;50.940;4.034;2023-09-12T04:14:56;39.75;;;28.60;;
52266;SDS011;38223;50.940;4.034;2023-09-12T04:17:27;39.83;;;27.45;;
52266;SDS011;38223;50.940;4.034;2023-09-12T04:19:58;34.53;;;26.12;;
52266;SDS011;38223;50.940;4.034;2023-09-12T04:22:33;31.82;;;26.35;;
52266;SDS011;38223;50.940;4.034;2023-09-12T04:25:04;31.05;;;24.63;;
52266;SDS011;38223;50.940;4.034;2023-09-12T04:27:34;31.27;;;24.95;;
52266;SDS011;38223;50.940;4.034;2023-09-12T04:30:08;28.07;;;23.32;;
52266;SDS011;38223;50.940;4.034;2023-09-12T04:32:39;33.78;;;24.67;;
52266;SDS011;38223;50.940;4.034;2023-09-12T04:35:10;28.47;;;24.47;;
52266;SDS011;38223;50.940;4.034;2023-09-12T04:37:39;32.03;;;25.43;;
52266;SDS011;38223;50.940;4.034;2023-09-12T04:40:13;32.78;;;25.77;;
52266;SDS011;38223;50.940;4.034;2023-09-12T04:42:44;32.73;;;25.92;;
52266;SDS011;38223;50.940;4.034;2023-09-12T04:45:18;32.28;;;26.48;;
52266;SDS011;38223;50.940;4.034;2023-09-12T04:47:48;36.55;;;25.68;;
52266;SDS011;38223;50.940;4.034;2023-09-12T04:50:20;34.85;;;26.93;;
52266;SDS011;38223;50.940;4.034;2023-09-12T04:52:50;31.45;;;26.00;;
52266;SDS011;38223;50.940;4.034;2023-09-12T04:55:22;34.83;;;25.82;;
52266;SDS011;38223;50.940;4.034;2023-09-12T04:57:53;32.40;;;26.75;;
52266;SDS011;38223;50.940;4.034;2023-09-12T05:00:22;36.10;;;26.05;;
52266;SDS011;38223;50.940;4.034;2023-09-12T05:02:57;39.98;;;27.15;;
52266;SDS011;38223;50.940;4.034;2023-09-12T05:05:27;37.23;;;26.68;;
52266;SDS011;38223;50.940;4.034;2023-09-12T05:08:01;42.33;;;27.52;;
52266;SDS011;38223;50.940;4.034;2023-09-12T05:10:35;36.17;;;27.48;;
52266;SDS011;38223;50.940;4.034;2023-09-12T05:13:25;38.23;;;28.92;;
52266;SDS011;38223;50.940;4.034;2023-09-12T05:15:59;41.55;;;29.32;;
52266;SDS011;38223;50.940;4.034;2023-09-12T05:18:26;40.38;;;28.65;;
52266;SDS011;38223;50.940;4.034;2023-09-12T05:20:56;43.85;;;30.50;;
52266;SDS011;38223;50.940;4.034;2023-09-12T05:23:30;41.33;;;28.52;;
52266;SDS011;38223;50.940;4.034;2023-09-12T05:26:00;41.45;;;28.32;;
52266;SDS011;38223;50.940;4.034;2023-09-12T05:28:34;40.83;;;28.57;;
52266;SDS011;38223;50.940;4.034;2023-09-12T05:31:04;35.25;;;27.02;;
52266;SDS011;38223;50.940;4.034;2023-09-12T05:33:38;40.03;;;29.27;;
52266;SDS011;38223;50.940;4.034;2023-09-12T05:36:11;42.85;;;28.67;;
52266;SDS011;38223;50.940;4.034;2023-09-12T05:38:44;37.75;;;27.37;;
52266;SDS011;38223;50.940;4.034;2023-09-12T05:41:13;35.88;;;26.25;;
52266;SDS011;38223;50.940;4.034;2023-09-12T05:43:46;36.15;;;27.35;;
52266;SDS011;38223;50.940;4.034;2023-09-12T05:46:17;39.75;;;27.65;;
52266;SDS011;38223;50.940;4.034;2023-09-12T05:48:48;37.88;;;27.85;;
52266;SDS011;38223;50.940;4.034;2023-09-12T05:51:18;48.00;;;28.50;;
52266;SDS011;38223;50.940;4.034;2023-09-12T05:53:53;44.23;;;28.12;;
52266;SDS011;38223;50.940;4.034;2023-09-12T05:56:22;59.90;;;35.23;;
52266;SDS011;38223;50.940;4.034;2023-09-12T05:58:54;70.83;;;40.92;;
52266;SDS011;38223;50.940;4.034;2023-09-12T06:01:26;60.52;;;35.33;;
52266;SDS011;38223;50.940;4.034;2023-09-12T06:03:56;58.13;;;34.73;;
52266;SDS011;38223;50.940;4.034;2023-09-12T06:06:33;85.75;;;45.12;;
52266;SDS011;38223;50.940;4.034;2023-09-12T06:09:05;83.15;;;42.60;;
52266;SDS011;38223;50.940;4.034;2023-09-12T06:11:34;91.95;;;47.23;;
52266;SDS011;38223;50.940;4.034;2023-09-12T06:14:05;95.80;;;48.58;;
52266;SDS011;38223;50.940;4.034;2023-09-12T06:16:39;97.72;;;47.55;;
52266;SDS011;38223;50.940;4.034;2023-09-12T06:19:14;104.40;;;49.77;;
52266;SDS011;38223;50.940;4.034;2023-09-12T06:21:41;105.87;;;50.52;;
52266;SDS011;38223;50.940;4.034;2023-09-12T06:24:18;105.80;;;52.87;;
52266;SDS011;38223;50.940;4.034;2023-09-12T06:26:49;92.00;;;48.87;;
52266;SDS011;38223;50.940;4.034;2023-09-12T06:29:18;100.53;;;50.90;;
52266;SDS011;38223;50.940;4.034;2023-09-12T06:31:48;101.60;;;52.05;;
52266;SDS011;38223;50.940;4.034;2023-09-12T06:34:19;95.83;;;51.55;;
52266;SDS011;38223;50.940;4.034;2023-09-12T06:36:49;99.50;;;52.13;;
52266;SDS011;38223;50.940;4.034;2023-09-12T06:39:22;91.15;;;49.95;;
52266;SDS011;38223;50.940;4.034;2023-09-12T06:41:52;105.00;;;50.33;;
52266;SDS011;38223;50.940;4.034;2023-09-12T06:44:25;95.70;;;53.05;;
52266;SDS011;38223;50.940;4.034;2023-09-12T06:46:58;102.67;;;53.98;;
52266;SDS011;38223;50.940;4.034;2023-09-12T06:49:29;98.07;;;51.02;;
52266;SDS011;38223;50.940;4.034;2023-09-12T06:52:04;92.27;;;49.23;;
52266;SDS011;38223;50.940;4.034;2023-09-12T06:54:37;101.40;;;53.92;;
52266;SDS011;38223;50.940;4.034;2023-09-12T06:57:07;99.83;;;52.65;;
52266;SDS011;38223;50.940;4.034;2023-09-12T06:59:39;100.78;;;53.17;;
52266;SDS011;38223;50.940;4.034;2023-09-12T07:02:09;96.40;;;50.50;;
52266;SDS011;38223;50.940;4.034;2023-09-12T07:04:44;99.17;;;50.08;;
52266;SDS011;38223;50.940;4.034;2023-09-12T07:07:13;92.02;;;49.73;;
52266;SDS011;38223;50.940;4.034;2023-09-12T07:09:45;96.70;;;51.80;;
52266;SDS011;38223;50.940;4.034;2023-09-12T07:12:15;100.97;;;51.35;;
52266;SDS011;38223;50.940;4.034;2023-09-12T07:14:48;92.17;;;50.15;;
52266;SDS011;38223;50.940;4.034;2023-09-12T07:17:23;94.37;;;51.13;;
52266;SDS011;38223;50.940;4.034;2023-09-12T07:19:53;86.02;;;48.78;;
52266;SDS011;38223;50.940;4.034;2023-09-12T07:22:27;90.12;;;50.55;;
52266;SDS011;38223;50.940;4.034;2023-09-12T07:24:55;91.45;;;50.73;;
52266;SDS011;38223;50.940;4.034;2023-09-12T07:27:28;91.67;;;50.33;;
52266;SDS011;38223;50.940;4.034;2023-09-12T07:29:59;90.17;;;49.48;;
52266;SDS011;38223;50.940;4.034;2023-09-12T07:32:31;100.07;;;49.85;;
52266;SDS011;38223;50.940;4.034;2023-09-12T07:35:02;107.20;;;52.20;;
52266;SDS011;38223;50.940;4.034;2023-09-12T07:37:34;84.97;;;48.70;;
52266;SDS011;38223;50.940;4.034;2023-09-12T07:40:06;81.35;;;47.53;;
52266;SDS011;38223;50.940;4.034;2023-09-12T07:42:42;83.12;;;45.92;;
52266;SDS011;38223;50.940;4.034;2023-09-12T07:45:12;76.02;;;44.85;;
52266;SDS011;38223;50.940;4.034;2023-09-12T07:47:44;77.58;;;44.00;;
52266;SDS011;38223;50.940;4.034;2023-09-12T07:50:19;83.52;;;46.35;;
52266;SDS011;38223;50.940;4.034;2023-09-12T07:52:52;81.10;;;45.48;;
52266;SDS011;38223;50.940;4.034;2023-09-12T07:55:22;82.00;;;45.25;;
52266;SDS011;38223;50.940;4.034;2023-09-12T07:57:53;79.30;;;44.30;;
52266;SDS011;38223;50.940;4.034;2023-09-12T08:00:23;76.53;;;43.83;;
52266;SDS011;38223;50.940;4.034;2023-09-12T08:05:29;78.30;;;45.50;;
52266;SDS011;38223;50.940;4.034;2023-09-12T08:08:01;86.30;;;48.33;;
52266;SDS011;38223;50.940;4.034;2023-09-12T08:10:34;97.45;;;48.58;;
52266;SDS011;38223;50.940;4.034;2023-09-12T08:13:06;89.72;;;48.68;;
52266;SDS011;38223;50.940;4.034;2023-09-12T08:15:36;93.90;;;48.08;;
52266;SDS011;38223;50.940;4.034;2023-09-12T08:18:08;90.47;;;48.60;;
52266;SDS011;38223;50.940;4.034;2023-09-12T08:20:39;84.72;;;46.40;;
52266;SDS011;38223;50.940;4.034;2023-09-12T08:23:12;86.50;;;46.95;;
52266;SDS011;38223;50.940;4.034;2023-09-12T08:25:46;75.87;;;44.03;;
52266;SDS011;38223;50.940;4.034;2023-09-12T08:28:16;74.95;;;43.83;;
52266;SDS011;38223;50.940;4.034;2023-09-12T08:30:56;76.02;;;43.75;;
52266;SDS011;38223;50.940;4.034;2023-09-12T08:33:27;84.40;;;45.38;;
52266;SDS011;38223;50.940;4.034;2023-09-12T08:35:56;77.40;;;43.17;;
52266;SDS011;38223;50.940;4.034;2023-09-12T08:38:26;77.12;;;43.00;;
52266;SDS011;38223;50.940;4.034;2023-09-12T08:40:57;75.60;;;43.55;;
52266;SDS011;38223;50.940;4.034;2023-09-12T08:43:28;72.35;;;40.67;;
52266;SDS011;38223;50.940;4.034;2023-09-12T08:46:00;76.77;;;41.98;;
52266;SDS011;38223;50.940;4.034;2023-09-12T08:48:34;70.57;;;42.62;;
52266;SDS011;38223;50.940;4.034;2023-09-12T08:51:07;71.20;;;42.53;;
52266;SDS011;38223;50.940;4.034;2023-09-12T08:53:45;60.90;;;38.05;;
52266;SDS011;38223;50.940;4.034;2023-09-12T08:56:14;64.17;;;39.10;;
52266;SDS011;38223;50.940;4.034;2023-09-12T08:58:46;64.25;;;38.25;;
52266;SDS011;38223;50.940;4.034;2023-09-12T09:01:18;59.30;;;37.50;;
52266;SDS011;38223;50.940;4.034;2023-09-12T09:03:50;53.65;;;35.92;;
52266;SDS011;38223;50.940;4.034;2023-09-12T09:06:24;53.02;;;33.38;;
52266;SDS011;38223;50.940;4.034;2023-09-12T09:08:54;48.95;;;32.17;;
52266;SDS011;38223;50.940;4.034;2023-09-12T09:11:34;46.28;;;31.12;;
52266;SDS011;38223;50.940;4.034;2023-09-12T09:14:00;52.27;;;32.73;;
52266;SDS011;38223;50.940;4.034;2023-09-12T09:16:35;55.70;;;35.08;;
52266;SDS011;38223;50.940;4.034;2023-09-12T09:19:08;47.50;;;33.80;;
52266;SDS011;38223;50.940;4.034;2023-09-12T09:21:45;53.17;;;34.98;;
52266;SDS011;38223;50.940;4.034;2023-09-12T09:24:16;51.15;;;33.25;;
52266;SDS011;38223;50.940;4.034;2023-09-12T09:26:48;48.98;;;32.03;;
52266;SDS011;38223;50.940;4.034;2023-09-12T09:29:22;47.80;;;31.15;;
52266;SDS011;38223;50.940;4.034;2023-09-12T09:32:02;47.15;;;30.85;;
52266;SDS011;38223;50.940;4.034;2023-09-12T09:34:36;46.68;;;32.50;;
52266;SDS011;38223;50.940;4.034;2023-09-12T09:37:09;52.03;;;34.18;;
52266;SDS011;38223;50.940;4.034;2023-09-12T09:39:43;40.25;;;28.92;;
52266;SDS011;38223;50.940;4.034;2023-09-12T09:42:14;46.30;;;30.95;;
52266;SDS011;38223;50.940;4.034;2023-09-12T09:44:47;44.03;;;30.50;;
52266;SDS011;38223;50.940;4.034;2023-09-12T09:47:15;44.55;;;30.15;;
52266;SDS011;38223;50.940;4.034;2023-09-12T09:49:51;46.98;;;30.50;;
52266;SDS011;38223;50.940;4.034;2023-09-12T09:52:29;41.65;;;28.52;;
52266;SDS011;38223;50.940;4.034;2023-09-12T09:55:01;49.10;;;30.37;;
52266;SDS011;38223;50.940;4.034;2023-09-12T09:57:31;38.90;;;27.55;;
52266;SDS011;38223;50.940;4.034;2023-09-12T10:00:07;36.13;;;26.80;;
52266;SDS011;38223;50.940;4.034;2023-09-12T10:02:40;36.73;;;28.23;;
52266;SDS011;38223;50.940;4.034;2023-09-12T10:05:13;39.75;;;26.42;;
52266;SDS011;38223;50.940;4.034;2023-09-12T10:07:47;34.65;;;26.20;;
52266;SDS011;38223;50.940;4.034;2023-09-12T10:10:24;37.83;;;26.25;;
52266;SDS011;38223;50.940;4.034;2023-09-12T10:12:57;36.00;;;25.62;;
52266;SDS011;38223;50.940;4.034;2023-09-12T10:15:31;31.40;;;22.22;;
52266;SDS011;38223;50.940;4.034;2023-09-12T10:18:08;37.40;;;25.97;;
52266;SDS011;38223;50.940;4.034;2023-09-12T10:20:51;31.85;;;24.85;;
52266;SDS011;38223;50.940;4.034;2023-09-12T10:23:34;31.95;;;24.52;;
52266;SDS011;38223;50.940;4.034;2023-09-12T10:26:14;31.25;;;23.15;;
52266;SDS011;38223;50.940;4.034;2023-09-12T10:28:50;32.53;;;24.50;;
52266;SDS011;38223;50.940;4.034;2023-09-12T10:31:20;26.93;;;21.77;;
52266;SDS011;38223;50.940;4.034;2023-09-12T10:33:55;23.70;;;18.05;;
52266;SDS011;38223;50.940;4.034;2023-09-12T10:36:25;25.90;;;18.82;;
52266;SDS011;38223;50.940;4.034;2023-09-12T10:38:59;20.10;;;16.05;;
52266;SDS011;38223;50.940;4.034;2023-09-12T10:41:35;18.92;;;15.48;;
52266;SDS011;38223;50.940;4.034;2023-09-12T10:44:15;17.48;;;14.23;;
52266;SDS011;38223;50.940;4.034;2023-09-12T10:46:47;21.68;;;17.98;;
52266;SDS011;38223;50.940;4.034;2023-09-12T10:49:17;24.12;;;16.73;;
52266;SDS011;38223;50.940;4.034;2023-09-12T10:51:48;17.02;;;14.33;;
52266;SDS011;38223;50.940;4.034;2023-09-12T10:54:26;15.88;;;14.13;;
52266;SDS011;38223;50.940;4.034;2023-09-12T10:57:09;17.82;;;14.13;;
52266;SDS011;38223;50.940;4.034;2023-09-12T11:00:22;17.10;;;15.00;;
52266;SDS011;38223;50.940;4.034;2023-09-12T11:02:35;22.27;;;15.32;;
52266;SDS011;38223;50.940;4.034;2023-09-12T11:05:07;21.10;;;15.80;;
52266;SDS011;38223;50.940;4.034;2023-09-12T11:08:01;15.83;;;14.28;;
52266;SDS011;38223;50.940;4.034;2023-09-12T11:10:32;14.50;;;12.95;;
52266;SDS011;38223;50.940;4.034;2023-09-12T11:13:08;14.68;;;13.22;;
52266;SDS011;38223;50.940;4.034;2023-09-12T11:15:38;15.53;;;14.05;;
52266;SDS011;38223;50.940;4.034;2023-09-12T11:18:10;14.53;;;13.13;;
52266;SDS011;38223;50.940;4.034;2023-09-12T11:20:49;13.50;;;12.23;;
52266;SDS011;38223;50.940;4.034;2023-09-12T11:23:20;11.50;;;10.45;;
52266;SDS011;38223;50.940;4.034;2023-09-12T11:26:13;13.65;;;12.13;;
52266;SDS011;38223;50.940;4.034;2023-09-12T11:28:21;15.50;;;14.03;;
52266;SDS011;38223;50.940;4.034;2023-09-12T11:30:57;17.55;;;15.98;;
52266;SDS011;38223;50.940;4.034;2023-09-12T11:33:30;19.42;;;15.93;;
52266;SDS011;38223;50.940;4.034;2023-09-12T11:36:09;17.05;;;15.20;;
52266;SDS011;38223;50.940;4.034;2023-09-12T11:38:41;16.62;;;14.98;;
52266;SDS011;38223;50.940;4.034;2023-09-12T11:41:10;16.37;;;14.80;;
52266;SDS011;38223;50.940;4.034;2023-09-12T11:43:39;13.95;;;12.65;;
52266;SDS011;38223;50.940;4.034;2023-09-12T11:46:13;12.82;;;11.73;;
52266;SDS011;38223;50.940;4.034;2023-09-12T11:48:47;12.82;;;11.73;;
52266;SDS011;38223;50.940;4.034;2023-09-12T11:51:19;13.78;;;12.35;;
52266;SDS011;38223;50.940;4.034;2023-09-12T11:53:50;11.70;;;10.70;;
52266;SDS011;38223;50.940;4.034;2023-09-12T11:56:20;13.45;;;11.20;;
52266;SDS011;38223;50.940;4.034;2023-09-12T11:58:53;13.32;;;10.38;;
52266;SDS011;38223;50.940;4.034;2023-09-12T12:01:23;13.43;;;11.78;;
52266;SDS011;38223;50.940;4.034;2023-09-12T12:03:54;13.43;;;12.05;;
52266;SDS011;38223;50.940;4.034;2023-09-12T12:06:29;12.78;;;11.57;;
52266;SDS011;38223;50.940;4.034;2023-09-12T12:09:00;17.70;;;13.75;;
52266;SDS011;38223;50.940;4.034;2023-09-12T12:11:34;12.60;;;11.50;;
52266;SDS011;38223;50.940;4.034;2023-09-12T12:14:24;14.03;;;11.57;;
52266;SDS011;38223;50.940;4.034;2023-09-12T12:16:47;13.15;;;11.38;;
52266;SDS011;38223;50.940;4.034;2023-09-12T12:19:15;14.25;;;11.18;;
52266;SDS011;38223;50.940;4.034;2023-09-12T12:21:46;11.18;;;10.05;;
52266;SDS011;38223;50.940;4.034;2023-09-12T12:24:17;9.88;;;8.80;;
52266;SDS011;38223;50.940;4.034;2023-09-12T12:26:50;9.10;;;8.28;;
52266;SDS011;38223;50.940;4.034;2023-09-12T12:29:19;8.38;;;7.72;;
52266;SDS011;38223;50.940;4.034;2023-09-12T12:31:50;9.60;;;8.73;;
52266;SDS011;38223;50.940;4.034;2023-09-12T12:34:24;9.18;;;7.15;;
52266;SDS011;38223;50.940;4.034;2023-09-12T12:36:57;10.93;;;7.42;;
52266;SDS011;38223;50.940;4.034;2023-09-12T12:39:27;7.83;;;7.00;;
52266;SDS011;38223;50.940;4.034;2023-09-12T12:41:59;6.25;;;5.33;;
52266;SDS011;38223;50.940;4.034;2023-09-12T12:44:33;7.92;;;6.10;;
52266;SDS011;38223;50.940;4.034;2023-09-12T12:47:10;9.05;;;6.70;;
52266;SDS011;38223;50.940;4.034;2023-09-12T12:49:38;8.15;;;6.12;;
52266;SDS011;38223;50.940;4.034;2023-09-12T12:52:16;7.45;;;6.03;;
52266;SDS011;38223;50.940;4.034;2023-09-12T12:54:48;7.47;;;6.40;;
52266;SDS011;38223;50.940;4.034;2023-09-12T12:57:19;8.28;;;7.47;;
52266;SDS011;38223;50.940;4.034;2023-09-12T12:59:53;5.95;;;5.45;;
52266;SDS011;38223;50.940;4.034;2023-09-12T13:02:24;5.42;;;4.92;;
52266;SDS011;38223;50.940;4.034;2023-09-12T13:04:54;7.03;;;6.40;;
52266;SDS011;38223;50.940;4.034;2023-09-12T13:07:28;8.50;;;7.28;;
52266;SDS011;38223;50.940;4.034;2023-09-12T13:10:00;9.48;;;8.65;;
52266;SDS011;38223;50.940;4.034;2023-09-12T13:12:32;8.40;;;7.58;;
52266;SDS011;38223;50.940;4.034;2023-09-12T13:15:07;10.03;;;8.35;;
52266;SDS011;38223;50.940;4.034;2023-09-12T13:17:44;8.80;;;8.00;;
52266;SDS011;38223;50.940;4.034;2023-09-12T13:20:13;8.65;;;7.47;;
52266;SDS011;38223;50.940;4.034;2023-09-12T13:22:47;8.33;;;7.53;;
52266;SDS011;38223;50.940;4.034;2023-09-12T13:25:16;11.57;;;9.90;;
52266;SDS011;38223;50.940;4.034;2023-09-12T13:27:49;12.63;;;8.90;;
52266;SDS011;38223;50.940;4.034;2023-09-12T13:30:18;14.68;;;9.23;;
52266;SDS011;38223;50.940;4.034;2023-09-12T13:32:52;11.57;;;8.88;;
52266;SDS011;38223;50.940;4.034;2023-09-12T13:35:25;11.18;;;9.90;;
52266;SDS011;38223;50.940;4.034;2023-09-12T13:37:57;13.25;;;10.98;;
52266;SDS011;38223;50.940;4.034;2023-09-12T13:40:31;12.60;;;9.70;;
52266;SDS011;38223;50.940;4.034;2023-09-12T13:43:09;14.45;;;12.18;;
52266;SDS011;38223;50.940;4.034;2023-09-12T13:45:42;17.52;;;12.73;;
52266;SDS011;38223;50.940;4.034;2023-09-12T13:48:12;21.70;;;14.73;;
52266;SDS011;38223;50.940;4.034;2023-09-12T13:50:46;18.87;;;13.68;;
52266;SDS011;38223;50.940;4.034;2023-09-12T13:53:18;20.25;;;15.15;;
52266;SDS011;38223;50.940;4.034;2023-09-12T13:55:51;21.07;;;15.28;;
52266;SDS011;38223;50.940;4.034;2023-09-12T13:58:21;19.60;;;15.48;;
52266;SDS011;38223;50.940;4.034;2023-09-12T14:00:55;19.25;;;13.90;;
52266;SDS011;38223;50.940;4.034;2023-09-12T14:03:27;22.70;;;14.13;;
52266;SDS011;38223;50.940;4.034;2023-09-12T14:05:56;19.40;;;14.25;;
52266;SDS011;38223;50.940;4.034;2023-09-12T14:08:30;16.73;;;13.78;;
52266;SDS011;38223;50.940;4.034;2023-09-12T14:10:59;16.45;;;14.65;;
52266;SDS011;38223;50.940;4.034;2023-09-12T14:13:29;16.17;;;14.25;;
52266;SDS011;38223;50.940;4.034;2023-09-12T14:16:00;21.00;;;17.17;;
52266;SDS011;38223;50.940;4.034;2023-09-12T14:18:29;16.50;;;13.78;;
52266;SDS011;38223;50.940;4.034;2023-09-12T14:21:00;18.85;;;14.63;;
52266;SDS011;38223;50.940;4.034;2023-09-12T14:23:33;15.95;;;13.70;;
52266;SDS011;38223;50.940;4.034;2023-09-12T14:26:03;21.30;;;14.00;;
52266;SDS011;38223;50.940;4.034;2023-09-12T14:28:32;16.95;;;13.70;;
52266;SDS011;38223;50.940;4.034;2023-09-12T14:31:03;19.15;;;13.90;;
52266;SDS011;38223;50.940;4.034;2023-09-12T14:33:34;19.70;;;12.75;;
52266;SDS011;38223;50.940;4.034;2023-09-12T14:36:07;14.73;;;13.00;;
52266;SDS011;38223;50.940;4.034;2023-09-12T14:38:39;14.03;;;12.50;;
52266;SDS011;38223;50.940;4.034;2023-09-12T14:41:09;14.43;;;12.23;;
52266;SDS011;38223;50.940;4.034;2023-09-12T14:43:40;14.40;;;12.47;;
52266;SDS011;38223;50.940;4.034;2023-09-12T14:46:09;12.95;;;11.78;;
52266;SDS011;38223;50.940;4.034;2023-09-12T14:48:42;15.93;;;11.43;;
52266;SDS011;38223;50.940;4.034;2023-09-12T14:51:12;11.97;;;10.88;;
52266;SDS011;38223;50.940;4.034;2023-09-12T14:53:42;18.02;;;12.05;;
52266;SDS011;38223;50.940;4.034;2023-09-12T14:56:14;12.35;;;11.03;;
52266;SDS011;38223;50.940;4.034;2023-09-12T14:58:48;15.80;;;13.45;;
52266;SDS011;38223;50.940;4.034;2023-09-12T15:01:18;17.05;;;13.10;;
52266;SDS011;38223;50.940;4.034;2023-09-12T15:03:50;15.05;;;13.10;;
52266;SDS011;38223;50.940;4.034;2023-09-12T15:06:24;15.28;;;13.55;;
52266;SDS011;38223;50.940;4.034;2023-09-12T15:08:53;17.57;;;13.43;;
52266;SDS011;38223;50.940;4.034;2023-09-12T15:11:22;15.18;;;13.68;;